Terminal Aerodrome Forecast
Issued by NWS

Home | Current Version | Previous Version | Text Only | Print | Product List | Glossary On
Versions: 1 2 3 4 5 6 7 8 9 10 11 12 13 14
000
FTUS46 KSGX 302300
TAFSNA
TAF
KSNA 302320Z 3100/3124 23005KT P6SM FEW013
     FM310800 17005KT P6SM OVC014
     FM311700 21009KT P6SM FEW019=

USA.gov is the U.S. government's official web portal to all federal, state and local government web resources and services.